N512AC KMEM-KBNA
Flight info
| Callsign | N512AC |
|---|---|
| Flight time | 0h 42m |
| Altitude | 13000 |
| Route | ELVIS4 EONE |
| Aircraft | PC12/L-SBGR/L |
Departure
| Time | 2026-05-08 03:42 |
|---|---|
| Airport | Memphis International Airport (KMEM) |
Arrival
| Time | 2026-05-08 04:25 |
|---|---|
| Airport | Nashville International Airport (KBNA) |
| Time | Latitude | Longitude | Altitude | Speed | Heading |
|---|---|---|---|---|---|
| 2026-05-08 03:10 | 35.05083 | -89.96921 | 281 ft | 0 kts | 19° |
| 2026-05-08 03:27 | 35.05067 | -89.96928 | 282 ft | 11 kts | 213° |
| 2026-05-08 03:27 | 35.05007 | -89.96992 | 283 ft | 16 kts | 238° |
| 2026-05-08 03:27 | 35.04886 | -89.97083 | 287 ft | 15 kts | 187° |
| 2026-05-08 03:27 | 35.04763 | -89.97065 | 289 ft | 26 kts | 176° |
| 2026-05-08 03:28 | 35.04533 | -89.97065 | 294 ft | 40 kts | 181° |
| 2026-05-08 03:28 | 35.04216 | -89.97100 | 296 ft | 51 kts | 179° |
| 2026-05-08 03:28 | 35.03897 | -89.97089 | 305 ft | 29 kts | 178° |
| 2026-05-08 03:28 | 35.03655 | -89.97089 | 314 ft | 41 kts | 177° |
| 2026-05-08 03:29 | 35.03335 | -89.97079 | 322 ft | 51 kts | 179° |
| 2026-05-08 03:29 | 35.03048 | -89.97072 | 324 ft | 33 kts | 179° |
| 2026-05-08 03:29 | 35.02787 | -89.97035 | 328 ft | 36 kts | 169° |
| 2026-05-08 03:29 | 35.02565 | -89.97093 | 333 ft | 32 kts | 249° |
| 2026-05-08 03:30 | 35.02557 | -89.97165 | 335 ft | 0 kts | 272° |
| 2026-05-08 03:31 | 35.02557 | -89.97166 | 335 ft | 1 kts | 279° |
| 2026-05-08 03:32 | 35.02559 | -89.97135 | 335 ft | 9 kts | 93° |
| 2026-05-08 03:32 | 35.02534 | -89.97032 | 334 ft | 18 kts | 140° |
| 2026-05-08 03:32 | 35.02426 | -89.97060 | 338 ft | 21 kts | 267° |
| 2026-05-08 03:32 | 35.02423 | -89.97125 | 338 ft | 0 kts | 270° |
| 2026-05-08 03:39 | 35.02423 | -89.97155 | 339 ft | 11 kts | 269° |
| 2026-05-08 03:39 | 35.02454 | -89.97246 | 335 ft | 8 kts | 354° |
| 2026-05-08 03:39 | 35.02458 | -89.97246 | 336 ft | 0 kts | 358° |
| 2026-05-08 03:41 | 35.02467 | -89.97246 | 336 ft | 7 kts | 359° |
| 2026-05-08 03:41 | 35.02739 | -89.97253 | 331 ft | 75 kts | 359° |
| 2026-05-08 03:42 | 35.03456 | -89.97266 | 376 ft | 123 kts | 358° |
| 2026-05-08 03:42 | 35.04424 | -89.97269 | 646 ft | 158 kts | 1° |
| 2026-05-08 03:42 | 35.05570 | -89.96791 | 762 ft | 189 kts | 33° |
| 2026-05-08 03:42 | 35.06497 | -89.95722 | 1393 ft | 177 kts | 43° |
| 2026-05-08 03:43 | 35.07451 | -89.94817 | 2034 ft | 177 kts | 37° |
| 2026-05-08 03:43 | 35.08447 | -89.93914 | 2655 ft | 178 kts | 38° |
| 2026-05-08 03:43 | 35.09363 | -89.92847 | 3038 ft | 192 kts | 53° |
| 2026-05-08 03:43 | 35.09820 | -89.91268 | 3053 ft | 209 kts | 88° |
| 2026-05-08 03:44 | 35.09815 | -89.89486 | 3193 ft | 212 kts | 88° |
| 2026-05-08 03:44 | 35.09878 | -89.87670 | 3259 ft | 216 kts | 88° |
| 2026-05-08 03:44 | 35.09873 | -89.85846 | 3483 ft | 212 kts | 88° |
| 2026-05-08 03:44 | 35.10031 | -89.84018 | 3449 ft | 220 kts | 82° |
| 2026-05-08 03:45 | 35.10289 | -89.82192 | 3494 ft | 223 kts | 77° |
| 2026-05-08 03:45 | 35.10667 | -89.80354 | 3348 ft | 226 kts | 75° |
| 2026-05-08 03:45 | 35.11065 | -89.78489 | 3204 ft | 226 kts | 76° |
| 2026-05-08 03:45 | 35.11439 | -89.76626 | 3067 ft | 226 kts | 76° |
| 2026-05-08 03:46 | 35.11790 | -89.74826 | 3398 ft | 211 kts | 76° |
| 2026-05-08 03:46 | 35.12128 | -89.73106 | 3816 ft | 206 kts | 76° |
| 2026-05-08 03:46 | 35.12464 | -89.71405 | 4234 ft | 205 kts | 76° |
| 2026-05-08 03:46 | 35.12795 | -89.69718 | 4770 ft | 200 kts | 75° |
| 2026-05-08 03:47 | 35.13115 | -89.68091 | 5429 ft | 195 kts | 74° |
| 2026-05-08 03:47 | 35.13430 | -89.66484 | 6112 ft | 196 kts | 73° |
| 2026-05-08 03:47 | 35.13747 | -89.64849 | 6809 ft | 195 kts | 72° |
| 2026-05-08 03:47 | 35.14054 | -89.63295 | 7723 ft | 181 kts | 71° |
| 2026-05-08 03:48 | 35.14346 | -89.61829 | 8539 ft | 176 kts | 70° |
| 2026-05-08 03:48 | 35.14628 | -89.60394 | 9282 ft | 176 kts | 70° |
| 2026-05-08 03:48 | 35.14914 | -89.58930 | 9986 ft | 181 kts | 70° |
| 2026-05-08 03:48 | 35.15217 | -89.57393 | 10523 ft | 192 kts | 70° |
| 2026-05-08 03:49 | 35.15533 | -89.55764 | 11076 ft | 201 kts | 71° |
| 2026-05-08 03:49 | 35.15862 | -89.54064 | 11645 ft | 210 kts | 71° |
| 2026-05-08 03:49 | 35.16206 | -89.52294 | 12225 ft | 218 kts | 72° |
| 2026-05-08 03:49 | 35.16564 | -89.50458 | 12768 ft | 228 kts | 72° |
| 2026-05-08 03:50 | 35.16952 | -89.48476 | 12993 ft | 253 kts | 72° |
| 2026-05-08 03:50 | 35.17380 | -89.46267 | 13007 ft | 277 kts | 73° |
| 2026-05-08 03:50 | 35.17831 | -89.43918 | 13000 ft | 289 kts | 73° |
| 2026-05-08 03:50 | 35.18292 | -89.41528 | 12999 ft | 294 kts | 73° |
| 2026-05-08 03:51 | 35.18765 | -89.39081 | 13001 ft | 297 kts | 73° |
| 2026-05-08 03:51 | 35.19242 | -89.36623 | 12996 ft | 297 kts | 73° |
| 2026-05-08 03:51 | 35.19718 | -89.34154 | 12996 ft | 297 kts | 73° |
| 2026-05-08 03:51 | 35.20190 | -89.31699 | 13000 ft | 295 kts | 73° |
| 2026-05-08 03:52 | 35.20661 | -89.29259 | 13000 ft | 295 kts | 73° |
| 2026-05-08 03:52 | 35.21169 | -89.26840 | 12994 ft | 292 kts | 67° |
| 2026-05-08 03:52 | 35.21992 | -89.24587 | 12989 ft | 288 kts | 58° |
| 2026-05-08 03:52 | 35.22923 | -89.22452 | 12996 ft | 288 kts | 56° |
| 2026-05-08 03:53 | 35.23827 | -89.20259 | 12995 ft | 290 kts | 60° |
| 2026-05-08 03:53 | 35.24629 | -89.17994 | 12995 ft | 290 kts | 62° |
| 2026-05-08 03:53 | 35.25422 | -89.15722 | 12993 ft | 290 kts | 61° |
| 2026-05-08 03:53 | 35.26248 | -89.13469 | 12995 ft | 290 kts | 60° |
| 2026-05-08 03:54 | 35.27077 | -89.11228 | 12999 ft | 289 kts | 60° |
| 2026-05-08 03:54 | 35.27907 | -89.08957 | 13003 ft | 294 kts | 61° |
| 2026-05-08 03:54 | 35.28741 | -89.06656 | 12995 ft | 297 kts | 61° |
| 2026-05-08 03:54 | 35.29582 | -89.04341 | 12990 ft | 297 kts | 61° |
| 2026-05-08 03:55 | 35.30415 | -89.02051 | 12995 ft | 297 kts | 61° |
| 2026-05-08 03:55 | 35.31259 | -88.99733 | 12995 ft | 298 kts | 61° |
| 2026-05-08 03:55 | 35.32103 | -88.97407 | 12994 ft | 298 kts | 61° |
| 2026-05-08 03:55 | 35.32947 | -88.95081 | 12995 ft | 298 kts | 61° |
| 2026-05-08 03:56 | 35.33787 | -88.92765 | 12998 ft | 298 kts | 61° |
| 2026-05-08 03:56 | 35.34618 | -88.90472 | 12991 ft | 298 kts | 61° |
| 2026-05-08 03:56 | 35.35458 | -88.88151 | 12988 ft | 298 kts | 61° |
| 2026-05-08 03:56 | 35.36300 | -88.85825 | 12995 ft | 298 kts | 61° |
| 2026-05-08 03:57 | 35.37139 | -88.83504 | 12994 ft | 298 kts | 61° |
| 2026-05-08 03:57 | 35.37969 | -88.81209 | 12997 ft | 298 kts | 61° |
| 2026-05-08 03:57 | 35.38807 | -88.78887 | 12996 ft | 298 kts | 61° |
| 2026-05-08 03:57 | 35.39644 | -88.76566 | 12994 ft | 298 kts | 61° |
| 2026-05-08 03:58 | 35.40482 | -88.74240 | 12997 ft | 298 kts | 61° |
| 2026-05-08 03:58 | 35.41321 | -88.71913 | 12998 ft | 298 kts | 61° |
| 2026-05-08 03:58 | 35.42159 | -88.69586 | 12999 ft | 298 kts | 61° |
| 2026-05-08 03:58 | 35.42996 | -88.67258 | 12997 ft | 298 kts | 61° |
| 2026-05-08 03:59 | 35.43834 | -88.64927 | 13000 ft | 298 kts | 61° |
| 2026-05-08 03:59 | 35.44671 | -88.62596 | 12996 ft | 299 kts | 61° |
| 2026-05-08 03:59 | 35.45510 | -88.60259 | 12994 ft | 299 kts | 61° |
| 2026-05-08 03:59 | 35.46335 | -88.57957 | 12998 ft | 299 kts | 61° |
| 2026-05-08 04:00 | 35.47177 | -88.55609 | 12994 ft | 299 kts | 61° |
| 2026-05-08 04:00 | 35.48016 | -88.53267 | 12998 ft | 299 kts | 61° |
| 2026-05-08 04:00 | 35.48851 | -88.50933 | 12998 ft | 299 kts | 61° |
| 2026-05-08 04:00 | 35.49686 | -88.48598 | 12998 ft | 299 kts | 61° |
| 2026-05-08 04:01 | 35.50523 | -88.46255 | 12997 ft | 299 kts | 61° |
| 2026-05-08 04:01 | 35.51350 | -88.43938 | 12997 ft | 299 kts | 61° |
| 2026-05-08 04:01 | 35.52188 | -88.41589 | 12999 ft | 300 kts | 61° |
| 2026-05-08 04:01 | 35.53024 | -88.39247 | 13001 ft | 300 kts | 61° |
| 2026-05-08 04:02 | 35.53861 | -88.36896 | 13005 ft | 300 kts | 61° |
| 2026-05-08 04:02 | 35.54695 | -88.34551 | 13013 ft | 300 kts | 61° |
| 2026-05-08 04:02 | 35.55532 | -88.32199 | 13010 ft | 300 kts | 61° |
| 2026-05-08 04:02 | 35.56367 | -88.29849 | 13009 ft | 300 kts | 61° |
| 2026-05-08 04:03 | 35.57202 | -88.27500 | 13016 ft | 300 kts | 61° |
| 2026-05-08 04:03 | 35.58871 | -88.22792 | 13015 ft | 300 kts | 61° |
| 2026-05-08 04:03 | 35.59695 | -88.20469 | 13016 ft | 300 kts | 61° |
| 2026-05-08 04:04 | 35.60530 | -88.18112 | 13014 ft | 301 kts | 61° |
| 2026-05-08 04:04 | 35.61363 | -88.15755 | 13013 ft | 301 kts | 61° |
| 2026-05-08 04:04 | 35.62197 | -88.13397 | 13016 ft | 301 kts | 61° |
| 2026-05-08 04:04 | 35.63034 | -88.11029 | 13018 ft | 301 kts | 61° |
| 2026-05-08 04:05 | 35.63867 | -88.08669 | 13017 ft | 301 kts | 61° |
| 2026-05-08 04:05 | 35.64702 | -88.06303 | 13014 ft | 301 kts | 61° |
| 2026-05-08 04:05 | 35.65535 | -88.03938 | 13015 ft | 301 kts | 62° |
| 2026-05-08 04:05 | 35.66370 | -88.01568 | 13014 ft | 301 kts | 61° |
| 2026-05-08 04:06 | 35.67203 | -87.99198 | 13003 ft | 302 kts | 61° |
| 2026-05-08 04:06 | 35.68038 | -87.96827 | 13000 ft | 302 kts | 61° |
| 2026-05-08 04:06 | 35.68862 | -87.94484 | 12997 ft | 302 kts | 62° |
| 2026-05-08 04:06 | 35.69697 | -87.92106 | 12998 ft | 302 kts | 62° |
| 2026-05-08 04:07 | 35.70531 | -87.89728 | 12996 ft | 302 kts | 62° |
| 2026-05-08 04:07 | 35.71364 | -87.87348 | 12993 ft | 302 kts | 62° |
| 2026-05-08 04:07 | 35.72197 | -87.84975 | 12995 ft | 303 kts | 62° |
| 2026-05-08 04:07 | 35.73032 | -87.82588 | 12995 ft | 303 kts | 62° |
| 2026-05-08 04:08 | 35.73864 | -87.80207 | 12988 ft | 302 kts | 62° |
| 2026-05-08 04:08 | 35.74687 | -87.77855 | 12991 ft | 303 kts | 62° |
| 2026-05-08 04:08 | 35.75521 | -87.75468 | 12991 ft | 303 kts | 62° |
| 2026-05-08 04:08 | 35.76353 | -87.73084 | 12988 ft | 303 kts | 62° |
| 2026-05-08 04:09 | 35.77184 | -87.70697 | 12990 ft | 303 kts | 62° |
| 2026-05-08 04:09 | 35.78016 | -87.68311 | 12993 ft | 303 kts | 62° |
| 2026-05-08 04:09 | 35.78850 | -87.65922 | 12989 ft | 303 kts | 62° |
| 2026-05-08 04:09 | 35.79685 | -87.63534 | 12997 ft | 303 kts | 62° |
| 2026-05-08 04:10 | 35.80522 | -87.61139 | 12998 ft | 303 kts | 62° |
| 2026-05-08 04:10 | 35.81358 | -87.58747 | 12998 ft | 303 kts | 62° |
| 2026-05-08 04:10 | 35.82182 | -87.56393 | 12991 ft | 304 kts | 62° |
| 2026-05-08 04:10 | 35.83019 | -87.54001 | 12991 ft | 304 kts | 62° |
| 2026-05-08 04:11 | 35.83858 | -87.51606 | 12991 ft | 304 kts | 62° |
| 2026-05-08 04:11 | 35.84697 | -87.49213 | 12988 ft | 304 kts | 62° |
| 2026-05-08 04:11 | 35.85535 | -87.46821 | 12989 ft | 304 kts | 62° |
| 2026-05-08 04:11 | 35.86377 | -87.44422 | 12990 ft | 305 kts | 62° |
| 2026-05-08 04:12 | 35.87221 | -87.42019 | 12991 ft | 305 kts | 62° |
| 2026-05-08 04:12 | 35.88065 | -87.39618 | 12992 ft | 305 kts | 62° |
| 2026-05-08 04:12 | 35.88908 | -87.37219 | 12990 ft | 305 kts | 62° |
| 2026-05-08 04:12 | 35.89709 | -87.34792 | 12984 ft | 307 kts | 70° |
| 2026-05-08 04:13 | 35.90037 | -87.32209 | 12891 ft | 313 kts | 83° |
| 2026-05-08 04:13 | 35.90166 | -87.29571 | 12640 ft | 302 kts | 86° |
| 2026-05-08 04:13 | 35.90256 | -87.26990 | 12383 ft | 299 kts | 86° |
| 2026-05-08 04:13 | 35.90339 | -87.24436 | 12131 ft | 296 kts | 86° |
| 2026-05-08 04:14 | 35.90418 | -87.21908 | 11881 ft | 294 kts | 86° |
| 2026-05-08 04:14 | 35.90496 | -87.19401 | 11630 ft | 292 kts | 86° |
| 2026-05-08 04:14 | 35.90569 | -87.16944 | 11389 ft | 288 kts | 86° |
| 2026-05-08 04:14 | 35.90640 | -87.14509 | 11140 ft | 280 kts | 86° |
| 2026-05-08 04:15 | 35.90704 | -87.12146 | 10892 ft | 267 kts | 86° |
| 2026-05-08 04:15 | 35.90761 | -87.09900 | 10636 ft | 257 kts | 86° |
| 2026-05-08 04:15 | 35.90815 | -87.07715 | 10387 ft | 252 kts | 86° |
| 2026-05-08 04:15 | 35.90867 | -87.05590 | 10149 ft | 250 kts | 86° |
| 2026-05-08 04:16 | 35.90915 | -87.03455 | 9906 ft | 247 kts | 86° |
| 2026-05-08 04:16 | 35.90962 | -87.01345 | 9641 ft | 245 kts | 86° |
| 2026-05-08 04:16 | 35.91009 | -86.99253 | 9374 ft | 243 kts | 86° |
| 2026-05-08 04:16 | 35.91060 | -86.97183 | 9116 ft | 240 kts | 86° |
| 2026-05-08 04:17 | 35.91111 | -86.95127 | 8859 ft | 239 kts | 86° |
| 2026-05-08 04:17 | 35.91165 | -86.93110 | 8604 ft | 237 kts | 86° |
| 2026-05-08 04:17 | 35.91221 | -86.91081 | 8347 ft | 235 kts | 86° |
| 2026-05-08 04:17 | 35.91279 | -86.89068 | 8098 ft | 233 kts | 86° |
| 2026-05-08 04:18 | 35.91411 | -86.87088 | 7820 ft | 231 kts | 77° |
| 2026-05-08 04:18 | 35.91831 | -86.85223 | 7425 ft | 223 kts | 67° |
| 2026-05-08 04:18 | 35.92408 | -86.83477 | 6918 ft | 221 kts | 63° |
| 2026-05-08 04:18 | 35.93032 | -86.81763 | 6439 ft | 217 kts | 63° |
| 2026-05-08 04:19 | 35.93652 | -86.80083 | 5951 ft | 213 kts | 63° |
| 2026-05-08 04:19 | 35.94282 | -86.78439 | 5494 ft | 210 kts | 62° |
| 2026-05-08 04:19 | 35.94914 | -86.76853 | 5062 ft | 206 kts | 62° |
| 2026-05-08 04:19 | 35.95553 | -86.75289 | 4629 ft | 202 kts | 62° |
| 2026-05-08 04:20 | 35.96418 | -86.73959 | 3977 ft | 199 kts | 37° |
| 2026-05-08 04:20 | 35.97631 | -86.73192 | 3305 ft | 194 kts | 18° |
| 2026-05-08 04:20 | 35.98825 | -86.72867 | 3307 ft | 155 kts | 8° |
| 2026-05-08 04:20 | 35.99827 | -86.72717 | 3260 ft | 136 kts | 6° |
| 2026-05-08 04:21 | 36.00754 | -86.72627 | 3190 ft | 133 kts | 4° |
| 2026-05-08 04:21 | 36.01672 | -86.72550 | 3092 ft | 128 kts | 9° |
| 2026-05-08 04:21 | 36.02480 | -86.72341 | 2737 ft | 117 kts | 15° |
| 2026-05-08 04:21 | 36.03221 | -86.72060 | 2431 ft | 111 kts | 19° |
| 2026-05-08 04:22 | 36.03982 | -86.71712 | 2311 ft | 119 kts | 20° |
| 2026-05-08 04:22 | 36.04748 | -86.71381 | 2330 ft | 116 kts | 20° |
| 2026-05-08 04:22 | 36.05515 | -86.71063 | 2325 ft | 113 kts | 18° |
| 2026-05-08 04:22 | 36.06251 | -86.70781 | 2288 ft | 112 kts | 15° |
| 2026-05-08 04:23 | 36.06755 | -86.70625 | 2188 ft | 114 kts | 14° |
| 2026-05-08 04:23 | 36.07520 | -86.70336 | 1903 ft | 115 kts | 19° |
| 2026-05-08 04:23 | 36.08499 | -86.69914 | 1518 ft | 111 kts | 18° |
| 2026-05-08 04:23 | 36.09254 | -86.69624 | 1111 ft | 116 kts | 17° |
| 2026-05-08 04:24 | 36.10005 | -86.69299 | 904 ft | 111 kts | 18° |
| 2026-05-08 04:24 | 36.10490 | -86.69105 | 800 ft | 108 kts | 14° |
| 2026-05-08 04:24 | 36.11199 | -86.68857 | 699 ft | 104 kts | 14° |
| 2026-05-08 04:24 | 36.12083 | -86.68524 | 598 ft | 90 kts | 15° |
| 2026-05-08 04:25 | 36.12435 | -86.68390 | 581 ft | 56 kts | 18° |
| 2026-05-08 04:25 | 36.12783 | -86.68254 | 579 ft | 31 kts | 18° |
| 2026-05-08 04:25 | 36.12895 | -86.68222 | 579 ft | 16 kts | 347° |
| 2026-05-08 04:25 | 36.12921 | -86.68252 | 579 ft | 0 kts | 316° |
| 2026-05-08 04:26 | 36.12926 | -86.68258 | 579 ft | 5 kts | 314° |
| 2026-05-08 04:26 | 36.12952 | -86.68292 | 580 ft | 0 kts | 314° |